sensor_id;sensor_type;location;lat;lon;timestamp;P1;durP1;ratioP1;P2;durP2;ratioP2
67979;SDS011;54760;47.490;19.030;2024-02-21T00:01:27;4.60;;;2.58;;
67979;SDS011;54760;47.490;19.030;2024-02-21T00:03:52;3.60;;;2.20;;
67979;SDS011;54760;47.490;19.030;2024-02-21T00:06:17;5.30;;;2.25;;
67979;SDS011;54760;47.490;19.030;2024-02-21T00:08:43;4.62;;;2.70;;
67979;SDS011;54760;47.490;19.030;2024-02-21T00:11:08;4.00;;;2.33;;
67979;SDS011;54760;47.490;19.030;2024-02-21T00:13:34;3.37;;;2.22;;
67979;SDS011;54760;47.490;19.030;2024-02-21T00:16:00;3.45;;;1.90;;
67979;SDS011;54760;47.490;19.030;2024-02-21T00:18:26;5.15;;;2.42;;
67979;SDS011;54760;47.490;19.030;2024-02-21T00:20:51;4.47;;;2.20;;
67979;SDS011;54760;47.490;19.030;2024-02-21T00:23:17;5.80;;;2.20;;
67979;SDS011;54760;47.490;19.030;2024-02-21T00:25:43;2.55;;;2.10;;
67979;SDS011;54760;47.490;19.030;2024-02-21T00:28:08;3.75;;;1.90;;
67979;SDS011;54760;47.490;19.030;2024-02-21T00:30:33;2.90;;;2.20;;
67979;SDS011;54760;47.490;19.030;2024-02-21T00:32:59;3.62;;;1.95;;
67979;SDS011;54760;47.490;19.030;2024-02-21T00:35:24;4.22;;;1.80;;
67979;SDS011;54760;47.490;19.030;2024-02-21T00:37:50;4.20;;;2.00;;
67979;SDS011;54760;47.490;19.030;2024-02-21T00:40:16;2.70;;;1.87;;
67979;SDS011;54760;47.490;19.030;2024-02-21T00:42:45;3.10;;;1.70;;
67979;SDS011;54760;47.490;19.030;2024-02-21T00:45:11;3.92;;;2.15;;
67979;SDS011;54760;47.490;19.030;2024-02-21T00:47:36;3.85;;;1.80;;
67979;SDS011;54760;47.490;19.030;2024-02-21T00:50:01;6.35;;;2.00;;
67979;SDS011;54760;47.490;19.030;2024-02-21T00:52:27;2.30;;;1.60;;
67979;SDS011;54760;47.490;19.030;2024-02-21T00:54:52;3.37;;;1.60;;
67979;SDS011;54760;47.490;19.030;2024-02-21T00:57:18;3.40;;;1.60;;
67979;SDS011;54760;47.490;19.030;2024-02-21T00:59:43;3.42;;;1.52;;
67979;SDS011;54760;47.490;19.030;2024-02-21T01:02:08;4.00;;;1.50;;
67979;SDS011;54760;47.490;19.030;2024-02-21T01:04:34;3.75;;;1.45;;
67979;SDS011;54760;47.490;19.030;2024-02-21T01:07:00;3.85;;;1.40;;
67979;SDS011;54760;47.490;19.030;2024-02-21T01:09:25;2.67;;;1.48;;
67979;SDS011;54760;47.490;19.030;2024-02-21T01:11:50;4.45;;;1.50;;
67979;SDS011;54760;47.490;19.030;2024-02-21T01:14:16;4.00;;;1.67;;
67979;SDS011;54760;47.490;19.030;2024-02-21T01:16:41;2.65;;;1.45;;
67979;SDS011;54760;47.490;19.030;2024-02-21T01:19:07;2.53;;;1.30;;
67979;SDS011;54760;47.490;19.030;2024-02-21T01:21:32;2.42;;;1.45;;
67979;SDS011;54760;47.490;19.030;2024-02-21T01:23:57;2.45;;;1.23;;
67979;SDS011;54760;47.490;19.030;2024-02-21T01:26:23;3.97;;;1.50;;
67979;SDS011;54760;47.490;19.030;2024-02-21T01:28:48;3.87;;;1.17;;
67979;SDS011;54760;47.490;19.030;2024-02-21T01:31:14;2.72;;;1.35;;
67979;SDS011;54760;47.490;19.030;2024-02-21T01:33:40;2.72;;;1.27;;
67979;SDS011;54760;47.490;19.030;2024-02-21T01:36:06;2.78;;;1.40;;
67979;SDS011;54760;47.490;19.030;2024-02-21T01:38:32;2.78;;;1.42;;
67979;SDS011;54760;47.490;19.030;2024-02-21T01:40:57;4.28;;;1.50;;
67979;SDS011;54760;47.490;19.030;2024-02-21T01:43:23;2.95;;;1.50;;
67979;SDS011;54760;47.490;19.030;2024-02-21T01:45:49;2.55;;;1.42;;
67979;SDS011;54760;47.490;19.030;2024-02-21T01:48:18;2.40;;;1.52;;
67979;SDS011;54760;47.490;19.030;2024-02-21T01:50:45;4.47;;;1.55;;
67979;SDS011;54760;47.490;19.030;2024-02-21T01:53:12;3.83;;;1.50;;
67979;SDS011;54760;47.490;19.030;2024-02-21T01:55:46;2.92;;;1.67;;
67979;SDS011;54760;47.490;19.030;2024-02-21T01:58:15;4.93;;;1.48;;
67979;SDS011;54760;47.490;19.030;2024-02-21T02:00:42;6.15;;;2.17;;
67979;SDS011;54760;47.490;19.030;2024-02-21T02:03:10;3.90;;;1.50;;
67979;SDS011;54760;47.490;19.030;2024-02-21T02:05:42;2.95;;;1.58;;
67979;SDS011;54760;47.490;19.030;2024-02-21T02:08:11;4.65;;;1.87;;
67979;SDS011;54760;47.490;19.030;2024-02-21T02:10:40;2.53;;;1.85;;
67979;SDS011;54760;47.490;19.030;2024-02-21T02:13:06;4.40;;;1.83;;
67979;SDS011;54760;47.490;19.030;2024-02-21T02:15:38;4.25;;;1.77;;
67979;SDS011;54760;47.490;19.030;2024-02-21T02:18:04;9.07;;;2.00;;
67979;SDS011;54760;47.490;19.030;2024-02-21T02:20:30;3.53;;;1.80;;
67979;SDS011;54760;47.490;19.030;2024-02-21T02:22:55;3.72;;;1.75;;
67979;SDS011;54760;47.490;19.030;2024-02-21T02:25:23;3.60;;;1.70;;
67979;SDS011;54760;47.490;19.030;2024-02-21T02:27:48;2.33;;;1.35;;
67979;SDS011;54760;47.490;19.030;2024-02-21T02:30:14;3.85;;;1.80;;
67979;SDS011;54760;47.490;19.030;2024-02-21T02:32:43;3.60;;;1.80;;
67979;SDS011;54760;47.490;19.030;2024-02-21T02:35:09;5.32;;;1.67;;
67979;SDS011;54760;47.490;19.030;2024-02-21T02:37:35;5.25;;;1.92;;
67979;SDS011;54760;47.490;19.030;2024-02-21T02:40:00;4.87;;;2.30;;
67979;SDS011;54760;47.490;19.030;2024-02-21T02:42:25;5.20;;;2.00;;
67979;SDS011;54760;47.490;19.030;2024-02-21T02:44:51;5.50;;;1.87;;
67979;SDS011;54760;47.490;19.030;2024-02-21T02:47:16;3.92;;;2.28;;
67979;SDS011;54760;47.490;19.030;2024-02-21T02:49:41;3.60;;;2.05;;
67979;SDS011;54760;47.490;19.030;2024-02-21T02:52:07;4.32;;;2.05;;
67979;SDS011;54760;47.490;19.030;2024-02-21T02:54:33;4.03;;;2.03;;
67979;SDS011;54760;47.490;19.030;2024-02-21T02:56:58;6.20;;;2.05;;
67979;SDS011;54760;47.490;19.030;2024-02-21T02:59:23;6.53;;;2.03;;
67979;SDS011;54760;47.490;19.030;2024-02-21T03:01:49;3.47;;;1.62;;
67979;SDS011;54760;47.490;19.030;2024-02-21T03:04:14;5.68;;;1.95;;
67979;SDS011;54760;47.490;19.030;2024-02-21T03:06:39;5.72;;;2.08;;
67979;SDS011;54760;47.490;19.030;2024-02-21T03:09:05;4.45;;;1.95;;
67979;SDS011;54760;47.490;19.030;2024-02-21T03:11:33;4.85;;;2.08;;
67979;SDS011;54760;47.490;19.030;2024-02-21T03:13:59;4.80;;;2.17;;
67979;SDS011;54760;47.490;19.030;2024-02-21T03:16:24;5.53;;;2.22;;
67979;SDS011;54760;47.490;19.030;2024-02-21T03:18:50;5.25;;;2.50;;
67979;SDS011;54760;47.490;19.030;2024-02-21T03:21:15;4.68;;;2.20;;
67979;SDS011;54760;47.490;19.030;2024-02-21T03:23:40;3.28;;;2.10;;
67979;SDS011;54760;47.490;19.030;2024-02-21T03:26:06;6.22;;;2.20;;
67979;SDS011;54760;47.490;19.030;2024-02-21T03:28:32;6.20;;;2.20;;
67979;SDS011;54760;47.490;19.030;2024-02-21T03:30:57;5.12;;;2.05;;
67979;SDS011;54760;47.490;19.030;2024-02-21T03:33:22;4.80;;;2.35;;
67979;SDS011;54760;47.490;19.030;2024-02-21T03:35:48;5.60;;;2.40;;
67979;SDS011;54760;47.490;19.030;2024-02-21T03:38:13;5.18;;;2.33;;
67979;SDS011;54760;47.490;19.030;2024-02-21T03:40:39;6.15;;;2.67;;
67979;SDS011;54760;47.490;19.030;2024-02-21T03:43:04;7.85;;;2.85;;
67979;SDS011;54760;47.490;19.030;2024-02-21T03:45:30;4.22;;;2.25;;
67979;SDS011;54760;47.490;19.030;2024-02-21T03:47:55;5.53;;;2.50;;
67979;SDS011;54760;47.490;19.030;2024-02-21T03:50:20;6.57;;;2.60;;
67979;SDS011;54760;47.490;19.030;2024-02-21T03:52:46;3.92;;;2.67;;
67979;SDS011;54760;47.490;19.030;2024-02-21T03:55:11;4.55;;;3.15;;
67979;SDS011;54760;47.490;19.030;2024-02-21T03:57:37;5.43;;;2.58;;
67979;SDS011;54760;47.490;19.030;2024-02-21T04:00:03;4.87;;;2.65;;
67979;SDS011;54760;47.490;19.030;2024-02-21T04:02:30;4.40;;;2.70;;
67979;SDS011;54760;47.490;19.030;2024-02-21T04:04:56;4.70;;;2.87;;
67979;SDS011;54760;47.490;19.030;2024-02-21T04:07:21;5.82;;;2.85;;
67979;SDS011;54760;47.490;19.030;2024-02-21T04:09:46;6.05;;;2.67;;
67979;SDS011;54760;47.490;19.030;2024-02-21T04:12:12;4.07;;;2.62;;
67979;SDS011;54760;47.490;19.030;2024-02-21T04:14:37;5.10;;;2.45;;
67979;SDS011;54760;47.490;19.030;2024-02-21T04:17:04;4.82;;;2.67;;
67979;SDS011;54760;47.490;19.030;2024-02-21T04:19:30;3.28;;;2.62;;
67979;SDS011;54760;47.490;19.030;2024-02-21T04:21:56;5.43;;;2.78;;
67979;SDS011;54760;47.490;19.030;2024-02-21T04:24:21;5.10;;;2.33;;
67979;SDS011;54760;47.490;19.030;2024-02-21T04:26:46;4.78;;;2.80;;
67979;SDS011;54760;47.490;19.030;2024-02-21T04:29:12;4.80;;;2.53;;
67979;SDS011;54760;47.490;19.030;2024-02-21T04:31:37;5.82;;;2.72;;
67979;SDS011;54760;47.490;19.030;2024-02-21T04:34:03;6.60;;;3.20;;
67979;SDS011;54760;47.490;19.030;2024-02-21T04:36:28;5.72;;;3.15;;
67979;SDS011;54760;47.490;19.030;2024-02-21T04:38:53;4.07;;;2.80;;
67979;SDS011;54760;47.490;19.030;2024-02-21T04:41:19;4.30;;;2.53;;
67979;SDS011;54760;47.490;19.030;2024-02-21T04:43:45;4.53;;;3.00;;
67979;SDS011;54760;47.490;19.030;2024-02-21T04:46:12;7.97;;;2.95;;
67979;SDS011;54760;47.490;19.030;2024-02-21T04:48:37;8.48;;;2.78;;
67979;SDS011;54760;47.490;19.030;2024-02-21T04:51:03;7.07;;;3.60;;
67979;SDS011;54760;47.490;19.030;2024-02-21T04:53:28;6.37;;;3.05;;
67979;SDS011;54760;47.490;19.030;2024-02-21T04:55:54;7.32;;;2.95;;
67979;SDS011;54760;47.490;19.030;2024-02-21T04:58:19;5.43;;;2.90;;
67979;SDS011;54760;47.490;19.030;2024-02-21T05:00:45;5.60;;;3.08;;
67979;SDS011;54760;47.490;19.030;2024-02-21T05:03:10;7.22;;;3.28;;
67979;SDS011;54760;47.490;19.030;2024-02-21T05:05:36;8.10;;;3.58;;
67979;SDS011;54760;47.490;19.030;2024-02-21T05:08:01;6.32;;;3.08;;
67979;SDS011;54760;47.490;19.030;2024-02-21T05:10:27;7.18;;;3.25;;
67979;SDS011;54760;47.490;19.030;2024-02-21T05:12:52;8.25;;;3.47;;
67979;SDS011;54760;47.490;19.030;2024-02-21T05:15:17;7.95;;;3.50;;
67979;SDS011;54760;47.490;19.030;2024-02-21T05:17:43;6.75;;;3.28;;
67979;SDS011;54760;47.490;19.030;2024-02-21T05:20:09;7.97;;;3.25;;
67979;SDS011;54760;47.490;19.030;2024-02-21T05:22:35;6.97;;;3.03;;
67979;SDS011;54760;47.490;19.030;2024-02-21T05:25:00;6.20;;;3.33;;
67979;SDS011;54760;47.490;19.030;2024-02-21T05:27:26;8.13;;;3.30;;
67979;SDS011;54760;47.490;19.030;2024-02-21T05:29:53;6.97;;;3.60;;
67979;SDS011;54760;47.490;19.030;2024-02-21T05:32:18;4.85;;;3.30;;
67979;SDS011;54760;47.490;19.030;2024-02-21T05:34:44;8.20;;;3.50;;
67979;SDS011;54760;47.490;19.030;2024-02-21T05:37:09;8.57;;;3.08;;
67979;SDS011;54760;47.490;19.030;2024-02-21T05:39:34;8.05;;;3.47;;
67979;SDS011;54760;47.490;19.030;2024-02-21T05:42:00;6.22;;;2.70;;
67979;SDS011;54760;47.490;19.030;2024-02-21T05:44:25;6.10;;;2.92;;
67979;SDS011;54760;47.490;19.030;2024-02-21T05:46:52;6.20;;;2.67;;
67979;SDS011;54760;47.490;19.030;2024-02-21T05:49:17;6.43;;;2.70;;
67979;SDS011;54760;47.490;19.030;2024-02-21T05:51:42;9.75;;;2.60;;
67979;SDS011;54760;47.490;19.030;2024-02-21T05:54:08;5.45;;;2.42;;
67979;SDS011;54760;47.490;19.030;2024-02-21T05:56:33;6.12;;;2.80;;
67979;SDS011;54760;47.490;19.030;2024-02-21T05:58:59;4.75;;;2.55;;
67979;SDS011;54760;47.490;19.030;2024-02-21T06:01:24;4.75;;;2.35;;
67979;SDS011;54760;47.490;19.030;2024-02-21T06:03:50;5.43;;;3.10;;
67979;SDS011;54760;47.490;19.030;2024-02-21T06:06:15;5.75;;;2.72;;
67979;SDS011;54760;47.490;19.030;2024-02-21T06:08:41;5.97;;;2.70;;
67979;SDS011;54760;47.490;19.030;2024-02-21T06:11:06;7.05;;;3.25;;
67979;SDS011;54760;47.490;19.030;2024-02-21T06:13:32;5.90;;;2.92;;
67979;SDS011;54760;47.490;19.030;2024-02-21T06:15:57;5.18;;;2.80;;
67979;SDS011;54760;47.490;19.030;2024-02-21T06:18:22;7.37;;;3.10;;
67979;SDS011;54760;47.490;19.030;2024-02-21T06:20:48;4.62;;;2.90;;
67979;SDS011;54760;47.490;19.030;2024-02-21T06:23:14;8.40;;;3.05;;
67979;SDS011;54760;47.490;19.030;2024-02-21T06:25:41;6.65;;;2.80;;
67979;SDS011;54760;47.490;19.030;2024-02-21T06:28:07;11.25;;;2.83;;
67979;SDS011;54760;47.490;19.030;2024-02-21T06:30:32;9.93;;;2.92;;
67979;SDS011;54760;47.490;19.030;2024-02-21T06:32:58;13.18;;;3.08;;
67979;SDS011;54760;47.490;19.030;2024-02-21T06:35:24;6.62;;;2.53;;
67979;SDS011;54760;47.490;19.030;2024-02-21T06:37:50;6.93;;;2.70;;
67979;SDS011;54760;47.490;19.030;2024-02-21T06:40:17;7.93;;;2.70;;
67979;SDS011;54760;47.490;19.030;2024-02-21T06:42:43;9.88;;;2.75;;
67979;SDS011;54760;47.490;19.030;2024-02-21T06:45:08;6.37;;;2.55;;
67979;SDS011;54760;47.490;19.030;2024-02-21T06:47:34;6.90;;;2.70;;
67979;SDS011;54760;47.490;19.030;2024-02-21T06:49:59;5.93;;;2.70;;
67979;SDS011;54760;47.490;19.030;2024-02-21T06:52:24;6.95;;;2.70;;
67979;SDS011;54760;47.490;19.030;2024-02-21T06:54:50;10.52;;;3.45;;
67979;SDS011;54760;47.490;19.030;2024-02-21T06:57:16;7.03;;;2.83;;
67979;SDS011;54760;47.490;19.030;2024-02-21T06:59:41;9.38;;;2.97;;
67979;SDS011;54760;47.490;19.030;2024-02-21T07:02:07;8.63;;;2.83;;
67979;SDS011;54760;47.490;19.030;2024-02-21T07:04:33;9.10;;;3.15;;
67979;SDS011;54760;47.490;19.030;2024-02-21T07:06:58;7.43;;;3.70;;
67979;SDS011;54760;47.490;19.030;2024-02-21T07:09:24;6.70;;;2.58;;
67979;SDS011;54760;47.490;19.030;2024-02-21T07:11:49;8.57;;;2.72;;
67979;SDS011;54760;47.490;19.030;2024-02-21T07:14:15;8.10;;;2.47;;
67979;SDS011;54760;47.490;19.030;2024-02-21T07:16:40;6.70;;;2.83;;
67979;SDS011;54760;47.490;19.030;2024-02-21T07:19:06;7.05;;;2.85;;
67979;SDS011;54760;47.490;19.030;2024-02-21T07:21:31;9.13;;;2.42;;
67979;SDS011;54760;47.490;19.030;2024-02-21T07:23:57;7.93;;;2.50;;
67979;SDS011;54760;47.490;19.030;2024-02-21T07:26:22;6.15;;;2.42;;
67979;SDS011;54760;47.490;19.030;2024-02-21T07:28:48;9.73;;;2.90;;
67979;SDS011;54760;47.490;19.030;2024-02-21T07:31:13;7.47;;;2.60;;
67979;SDS011;54760;47.490;19.030;2024-02-21T07:33:39;10.93;;;3.00;;
67979;SDS011;54760;47.490;19.030;2024-02-21T07:36:07;7.68;;;2.50;;
67979;SDS011;54760;47.490;19.030;2024-02-21T07:38:35;10.50;;;2.65;;
67979;SDS011;54760;47.490;19.030;2024-02-21T07:41:00;8.88;;;2.95;;
67979;SDS011;54760;47.490;19.030;2024-02-21T07:43:26;8.80;;;2.47;;
67979;SDS011;54760;47.490;19.030;2024-02-21T07:45:51;7.75;;;2.50;;
67979;SDS011;54760;47.490;19.030;2024-02-21T07:48:18;11.27;;;2.60;;
67979;SDS011;54760;47.490;19.030;2024-02-21T07:50:44;11.25;;;3.05;;
67979;SDS011;54760;47.490;19.030;2024-02-21T07:53:09;9.20;;;3.03;;
67979;SDS011;54760;47.490;19.030;2024-02-21T07:55:35;8.57;;;2.72;;
67979;SDS011;54760;47.490;19.030;2024-02-21T07:58:00;8.00;;;2.78;;
67979;SDS011;54760;47.490;19.030;2024-02-21T08:00:26;5.90;;;2.35;;
67979;SDS011;54760;47.490;19.030;2024-02-21T08:02:51;6.82;;;2.40;;
67979;SDS011;54760;47.490;19.030;2024-02-21T08:05:17;7.25;;;2.62;;
67979;SDS011;54760;47.490;19.030;2024-02-21T08:07:42;6.82;;;2.22;;
67979;SDS011;54760;47.490;19.030;2024-02-21T08:10:08;5.53;;;3.53;;
67979;SDS011;54760;47.490;19.030;2024-02-21T08:12:34;8.40;;;3.08;;
67979;SDS011;54760;47.490;19.030;2024-02-21T08:15:00;5.50;;;2.40;;
67979;SDS011;54760;47.490;19.030;2024-02-21T08:17:25;8.35;;;3.17;;
67979;SDS011;54760;47.490;19.030;2024-02-21T08:19:51;6.35;;;2.62;;
67979;SDS011;54760;47.490;19.030;2024-02-21T08:22:16;6.15;;;2.83;;
67979;SDS011;54760;47.490;19.030;2024-02-21T08:24:42;6.60;;;2.80;;
67979;SDS011;54760;47.490;19.030;2024-02-21T08:27:07;9.73;;;3.35;;
67979;SDS011;54760;47.490;19.030;2024-02-21T08:29:32;13.55;;;3.00;;
67979;SDS011;54760;47.490;19.030;2024-02-21T08:31:58;7.32;;;2.87;;
67979;SDS011;54760;47.490;19.030;2024-02-21T08:34:23;9.75;;;2.70;;
67979;SDS011;54760;47.490;19.030;2024-02-21T08:36:49;11.95;;;3.70;;
67979;SDS011;54760;47.490;19.030;2024-02-21T08:39:15;9.02;;;2.75;;
67979;SDS011;54760;47.490;19.030;2024-02-21T08:41:43;9.85;;;2.97;;
67979;SDS011;54760;47.490;19.030;2024-02-21T08:44:08;6.60;;;2.95;;
67979;SDS011;54760;47.490;19.030;2024-02-21T08:46:34;4.87;;;2.80;;
67979;SDS011;54760;47.490;19.030;2024-02-21T08:48:59;10.45;;;3.05;;
67979;SDS011;54760;47.490;19.030;2024-02-21T08:51:25;6.32;;;2.70;;
67979;SDS011;54760;47.490;19.030;2024-02-21T08:53:51;8.15;;;2.58;;
67979;SDS011;54760;47.490;19.030;2024-02-21T08:56:18;5.80;;;2.50;;
67979;SDS011;54760;47.490;19.030;2024-02-21T08:58:44;8.88;;;2.65;;
67979;SDS011;54760;47.490;19.030;2024-02-21T09:01:09;10.25;;;2.70;;
67979;SDS011;54760;47.490;19.030;2024-02-21T09:03:37;7.32;;;2.60;;
67979;SDS011;54760;47.490;19.030;2024-02-21T09:06:04;10.25;;;2.72;;
67979;SDS011;54760;47.490;19.030;2024-02-21T09:08:33;9.23;;;3.08;;
67979;SDS011;54760;47.490;19.030;2024-02-21T09:10:59;8.75;;;2.87;;
67979;SDS011;54760;47.490;19.030;2024-02-21T09:13:26;6.97;;;2.80;;
67979;SDS011;54760;47.490;19.030;2024-02-21T09:15:51;9.43;;;2.95;;
67979;SDS011;54760;47.490;19.030;2024-02-21T09:18:17;10.60;;;2.97;;
67979;SDS011;54760;47.490;19.030;2024-02-21T09:20:43;7.03;;;3.25;;
67979;SDS011;54760;47.490;19.030;2024-02-21T09:23:09;6.60;;;2.60;;
67979;SDS011;54760;47.490;19.030;2024-02-21T09:25:34;7.22;;;2.85;;
67979;SDS011;54760;47.490;19.030;2024-02-21T09:28:01;10.82;;;4.10;;
67979;SDS011;54760;47.490;19.030;2024-02-21T09:30:27;6.25;;;2.80;;
67979;SDS011;54760;47.490;19.030;2024-02-21T09:32:52;7.43;;;2.70;;
67979;SDS011;54760;47.490;19.030;2024-02-21T09:35:18;6.80;;;2.62;;
67979;SDS011;54760;47.490;19.030;2024-02-21T09:37:43;7.20;;;2.50;;
67979;SDS011;54760;47.490;19.030;2024-02-21T09:40:09;6.87;;;2.80;;
67979;SDS011;54760;47.490;19.030;2024-02-21T09:42:38;13.00;;;2.55;;
67979;SDS011;54760;47.490;19.030;2024-02-21T09:45:08;10.55;;;2.58;;
67979;SDS011;54760;47.490;19.030;2024-02-21T09:47:40;8.38;;;3.08;;
67979;SDS011;54760;47.490;19.030;2024-02-21T09:50:14;7.10;;;2.42;;
67979;SDS011;54760;47.490;19.030;2024-02-21T09:52:40;8.20;;;2.60;;
67979;SDS011;54760;47.490;19.030;2024-02-21T09:55:07;8.57;;;2.37;;
67979;SDS011;54760;47.490;19.030;2024-02-21T09:57:37;7.65;;;2.90;;
67979;SDS011;54760;47.490;19.030;2024-02-21T10:00:03;9.07;;;2.62;;
67979;SDS011;54760;47.490;19.030;2024-02-21T10:02:32;6.60;;;2.60;;
67979;SDS011;54760;47.490;19.030;2024-02-21T10:04:58;11.82;;;3.12;;
67979;SDS011;54760;47.490;19.030;2024-02-21T10:07:24;10.55;;;3.35;;
67979;SDS011;54760;47.490;19.030;2024-02-21T10:10:00;6.47;;;2.78;;
67979;SDS011;54760;47.490;19.030;2024-02-21T10:12:28;9.18;;;3.45;;
67979;SDS011;54760;47.490;19.030;2024-02-21T10:15:03;11.68;;;3.33;;
67979;SDS011;54760;47.490;19.030;2024-02-21T10:17:30;8.82;;;2.97;;
67979;SDS011;54760;47.490;19.030;2024-02-21T10:20:06;8.95;;;2.95;;
67979;SDS011;54760;47.490;19.030;2024-02-21T10:22:33;7.47;;;2.95;;
67979;SDS011;54760;47.490;19.030;2024-02-21T10:25:07;7.95;;;2.62;;
67979;SDS011;54760;47.490;19.030;2024-02-21T10:27:34;11.32;;;3.42;;
67979;SDS011;54760;47.490;19.030;2024-02-21T10:29:59;9.20;;;3.20;;
67979;SDS011;54760;47.490;19.030;2024-02-21T10:32:24;7.43;;;2.87;;
67979;SDS011;54760;47.490;19.030;2024-02-21T10:35:00;10.82;;;3.00;;
67979;SDS011;54760;47.490;19.030;2024-02-21T10:37:26;5.68;;;2.58;;
67979;SDS011;54760;47.490;19.030;2024-02-21T10:39:51;7.87;;;2.97;;
67979;SDS011;54760;47.490;19.030;2024-02-21T10:42:18;8.43;;;2.87;;
67979;SDS011;54760;47.490;19.030;2024-02-21T10:44:46;7.82;;;2.70;;
67979;SDS011;54760;47.490;19.030;2024-02-21T10:47:16;14.13;;;3.47;;
67979;SDS011;54760;47.490;19.030;2024-02-21T10:49:46;6.75;;;2.60;;
67979;SDS011;54760;47.490;19.030;2024-02-21T10:54:57;9.57;;;2.92;;
67979;SDS011;54760;47.490;19.030;2024-02-21T10:57:27;8.27;;;2.85;;
67979;SDS011;54760;47.490;19.030;2024-02-21T10:59:55;8.90;;;3.12;;
67979;SDS011;54760;47.490;19.030;2024-02-21T11:02:21;8.52;;;3.15;;
67979;SDS011;54760;47.490;19.030;2024-02-21T11:04:46;8.70;;;2.85;;
67979;SDS011;54760;47.490;19.030;2024-02-21T11:07:13;12.73;;;3.35;;
67979;SDS011;54760;47.490;19.030;2024-02-21T11:09:40;9.73;;;3.00;;
67979;SDS011;54760;47.490;19.030;2024-02-21T11:12:19;6.85;;;2.60;;
67979;SDS011;54760;47.490;19.030;2024-02-21T11:14:45;9.77;;;3.05;;
67979;SDS011;54760;47.490;19.030;2024-02-21T11:17:18;12.10;;;2.95;;
67979;SDS011;54760;47.490;19.030;2024-02-21T11:19:46;8.82;;;3.00;;
67979;SDS011;54760;47.490;19.030;2024-02-21T11:22:16;10.07;;;3.03;;
67979;SDS011;54760;47.490;19.030;2024-02-21T11:24:42;8.30;;;3.05;;
67979;SDS011;54760;47.490;19.030;2024-02-21T11:27:20;8.40;;;3.03;;
67979;SDS011;54760;47.490;19.030;2024-02-21T11:29:49;8.02;;;2.80;;
67979;SDS011;54760;47.490;19.030;2024-02-21T11:32:20;6.78;;;2.72;;
67979;SDS011;54760;47.490;19.030;2024-02-21T11:34:59;9.25;;;3.10;;
67979;SDS011;54760;47.490;19.030;2024-02-21T11:37:29;6.07;;;2.80;;
67979;SDS011;54760;47.490;19.030;2024-02-21T11:39:58;7.70;;;2.92;;
67979;SDS011;54760;47.490;19.030;2024-02-21T11:42:27;9.43;;;3.00;;
67979;SDS011;54760;47.490;19.030;2024-02-21T11:44:54;7.70;;;2.83;;
67979;SDS011;54760;47.490;19.030;2024-02-21T11:47:22;10.38;;;3.28;;
67979;SDS011;54760;47.490;19.030;2024-02-21T11:49:48;8.20;;;2.70;;
67979;SDS011;54760;47.490;19.030;2024-02-21T11:52:15;7.53;;;3.03;;
67979;SDS011;54760;47.490;19.030;2024-02-21T11:54:41;9.77;;;3.05;;
67979;SDS011;54760;47.490;19.030;2024-02-21T11:57:07;7.75;;;2.83;;
67979;SDS011;54760;47.490;19.030;2024-02-21T11:59:33;7.45;;;2.67;;
67979;SDS011;54760;47.490;19.030;2024-02-21T12:02:03;8.63;;;3.22;;
67979;SDS011;54760;47.490;19.030;2024-02-21T12:04:28;9.07;;;3.03;;
67979;SDS011;54760;47.490;19.030;2024-02-21T12:06:56;9.48;;;3.12;;
67979;SDS011;54760;47.490;19.030;2024-02-21T12:09:23;8.85;;;2.90;;
67979;SDS011;54760;47.490;19.030;2024-02-21T12:14:25;6.97;;;2.45;;
67979;SDS011;54760;47.490;19.030;2024-02-21T12:16:51;8.27;;;2.25;;
67979;SDS011;54760;47.490;19.030;2024-02-21T12:19:17;6.97;;;2.42;;
67979;SDS011;54760;47.490;19.030;2024-02-21T12:21:42;4.40;;;2.03;;
67979;SDS011;54760;47.490;19.030;2024-02-21T12:24:20;4.87;;;2.28;;
67979;SDS011;54760;47.490;19.030;2024-02-21T12:26:50;9.63;;;2.70;;
67979;SDS011;54760;47.490;19.030;2024-02-21T12:29:17;5.00;;;2.20;;
67979;SDS011;54760;47.490;19.030;2024-02-21T12:31:43;10.93;;;2.97;;
67979;SDS011;54760;47.490;19.030;2024-02-21T12:34:09;8.15;;;2.97;;
67979;SDS011;54760;47.490;19.030;2024-02-21T12:36:36;6.75;;;2.55;;
67979;SDS011;54760;47.490;19.030;2024-02-21T12:39:07;8.48;;;2.40;;
67979;SDS011;54760;47.490;19.030;2024-02-21T12:41:33;9.75;;;2.72;;
67979;SDS011;54760;47.490;19.030;2024-02-21T12:44:00;8.70;;;2.37;;
67979;SDS011;54760;47.490;19.030;2024-02-21T12:46:26;9.13;;;2.65;;
67979;SDS011;54760;47.490;19.030;2024-02-21T12:48:51;8.35;;;2.60;;
67979;SDS011;54760;47.490;19.030;2024-02-21T12:51:16;8.45;;;2.30;;
67979;SDS011;54760;47.490;19.030;2024-02-21T12:53:46;4.82;;;2.47;;
67979;SDS011;54760;47.490;19.030;2024-02-21T12:56:12;8.20;;;2.70;;
67979;SDS011;54760;47.490;19.030;2024-02-21T12:58:38;7.35;;;2.28;;
67979;SDS011;54760;47.490;19.030;2024-02-21T13:01:03;6.25;;;2.25;;
67979;SDS011;54760;47.490;19.030;2024-02-21T13:03:29;6.95;;;2.28;;
67979;SDS011;54760;47.490;19.030;2024-02-21T13:05:55;6.60;;;2.75;;
67979;SDS011;54760;47.490;19.030;2024-02-21T13:08:21;8.77;;;2.55;;
67979;SDS011;54760;47.490;19.030;2024-02-21T13:10:47;11.43;;;2.83;;
67979;SDS011;54760;47.490;19.030;2024-02-21T13:13:14;7.32;;;3.10;;
67979;SDS011;54760;47.490;19.030;2024-02-21T13:15:39;9.30;;;2.30;;
67979;SDS011;54760;47.490;19.030;2024-02-21T13:18:07;7.87;;;2.45;;
67979;SDS011;54760;47.490;19.030;2024-02-21T13:20:33;10.82;;;2.67;;
67979;SDS011;54760;47.490;19.030;2024-02-21T13:22:58;6.65;;;2.50;;
67979;SDS011;54760;47.490;19.030;2024-02-21T13:25:24;17.23;;;3.53;;
67979;SDS011;54760;47.490;19.030;2024-02-21T13:27:49;7.82;;;2.53;;
67979;SDS011;54760;47.490;19.030;2024-02-21T13:30:15;8.05;;;2.50;;
67979;SDS011;54760;47.490;19.030;2024-02-21T13:32:43;11.23;;;2.55;;
67979;SDS011;54760;47.490;19.030;2024-02-21T13:35:11;9.43;;;2.42;;
67979;SDS011;54760;47.490;19.030;2024-02-21T13:37:37;4.68;;;2.00;;
67979;SDS011;54760;47.490;19.030;2024-02-21T13:40:04;6.32;;;2.37;;
67979;SDS011;54760;47.490;19.030;2024-02-21T13:42:30;7.60;;;2.45;;
67979;SDS011;54760;47.490;19.030;2024-02-21T13:44:55;5.97;;;2.37;;
67979;SDS011;54760;47.490;19.030;2024-02-21T13:47:20;10.02;;;2.72;;
67979;SDS011;54760;47.490;19.030;2024-02-21T13:49:46;7.22;;;2.17;;
67979;SDS011;54760;47.490;19.030;2024-02-21T13:52:12;5.78;;;2.33;;
67979;SDS011;54760;47.490;19.030;2024-02-21T13:54:38;6.85;;;2.90;;
67979;SDS011;54760;47.490;19.030;2024-02-21T13:57:03;7.78;;;2.80;;
67979;SDS011;54760;47.490;19.030;2024-02-21T13:59:29;9.05;;;2.72;;
67979;SDS011;54760;47.490;19.030;2024-02-21T14:01:55;8.98;;;2.87;;
67979;SDS011;54760;47.490;19.030;2024-02-21T14:04:20;6.80;;;2.60;;
67979;SDS011;54760;47.490;19.030;2024-02-21T14:06:46;8.02;;;2.70;;
67979;SDS011;54760;47.490;19.030;2024-02-21T14:09:12;5.72;;;2.28;;
67979;SDS011;54760;47.490;19.030;2024-02-21T14:11:38;8.50;;;2.53;;
67979;SDS011;54760;47.490;19.030;2024-02-21T14:14:05;7.00;;;2.40;;
67979;SDS011;54760;47.490;19.030;2024-02-21T14:16:30;7.55;;;2.90;;
67979;SDS011;54760;47.490;19.030;2024-02-21T14:18:57;8.48;;;2.62;;
67979;SDS011;54760;47.490;19.030;2024-02-21T14:21:22;6.57;;;2.12;;
67979;SDS011;54760;47.490;19.030;2024-02-21T14:23:48;6.93;;;2.28;;
67979;SDS011;54760;47.490;19.030;2024-02-21T14:26:13;9.88;;;2.85;;
67979;SDS011;54760;47.490;19.030;2024-02-21T14:28:42;8.75;;;2.45;;
67979;SDS011;54760;47.490;19.030;2024-02-21T14:31:07;5.60;;;2.00;;
67979;SDS011;54760;47.490;19.030;2024-02-21T14:33:34;6.80;;;2.00;;